Time;durP1;ratioP1;P1;durP2;ratioP2;P2;SDS_P1;SDS_P2;PMS_P1;PMS_P2;Temp;Humidity;BMP_temperature;BMP_pressure;BME280_temperature;BME280_humidity;BME280_pressure;Samples;Min_cycle;Max_cycle;Signal;HPM_P1;HPM_P2
2022/12/23 05:22:35;;;;;;;0.88;0.60;;;;;;;11.37;100.00;99470.09;5089013;28;20332;-69
2022/12/23 05:25:01;;;;;;;1.92;1.15;;;;;;;11.41;100.00;99469.53;5089493;28;20033;-69
2022/12/23 05:27:26;;;;;;;0.57;0.30;;;;;;;11.45;100.00;99474.44;5088035;28;20039;-69
2022/12/23 05:29:51;;;;;;;0.73;0.45;;;;;;;11.45;100.00;99480.59;5088956;28;20393;-69
2022/12/23 05:32:17;;;;;;;0.50;0.50;;;;;;;11.49;100.00;99487.19;5089074;28;20042;-69
2022/12/23 05:34:42;;;;;;;0.93;0.60;;;;;;;11.51;100.00;99484.31;5088906;28;20477;-69
2022/12/23 05:37:07;;;;;;;0.60;0.35;;;;;;;11.51;100.00;99463.81;5088648;28;20063;-69
2022/12/23 05:39:33;;;;;;;1.00;0.43;;;;;;;11.50;100.00;99456.84;5088661;28;20040;-69
2022/12/23 05:41:58;;;;;;;1.00;0.57;;;;;;;11.50;100.00;99459.50;5088377;28;20131;-69
2022/12/23 05:44:24;;;;;;;1.83;1.05;;;;;;;11.52;100.00;99467.31;5088713;28;20044;-69
2022/12/23 05:46:49;;;;;;;1.20;0.98;;;;;;;11.52;100.00;99477.97;5088695;28;20060;-69
2022/12/23 05:49:14;;;;;;;0.30;0.30;;;;;;;11.51;100.00;99471.00;5088759;28;20096;-69
2022/12/23 05:51:40;;;;;;;0.45;0.45;;;;;;;11.51;100.00;99473.66;5088267;28;20042;-69
2022/12/23 05:54:05;;;;;;;0.30;0.30;;;;;;;11.52;100.00;99469.97;5088855;28;20032;-69
2022/12/23 05:56:31;;;;;;;0.50;0.50;;;;;;;11.51;100.00;99469.16;5088601;28;20032;-69
2022/12/23 05:58:56;;;;;;;2.28;0.50;;;;;;;11.52;100.00;99472.63;5088667;28;20032;-69
2022/12/23 06:01:21;;;;;;;0.82;0.40;;;;;;;11.52;100.00;99469.97;5088523;28;20049;-69
2022/12/23 06:03:47;;;;;;;0.43;0.38;;;;;;;11.55;100.00;99464.25;5088842;28;20546;-69
2022/12/23 06:06:12;;;;;;;0.10;0.10;;;;;;;11.56;100.00;99457.91;5088609;28;20036;-69
2022/12/23 06:08:38;;;;;;;3.50;1.05;;;;;;;11.56;100.00;99457.91;5088753;28;20389;-69
2022/12/23 06:11:04;;;;;;;0.30;0.30;;;;;;;11.56;100.00;99456.03;5088210;28;20041;-69
2022/12/23 06:13:29;;;;;;;0.38;0.38;;;;;;;11.57;100.00;99463.03;5088637;28;20032;-69
2022/12/23 06:15:55;;;;;;;0.38;0.38;;;;;;;11.55;100.00;99449.06;5088228;28;20368;-69
2022/12/23 06:18:21;;;;;;;2.25;1.10;;;;;;;11.56;100.00;99468.56;5088199;28;20123;-69
2022/12/23 06:20:46;;;;;;;0.63;0.63;;;;;;;11.54;100.00;99465.25;5087746;28;20119;-69
2022/12/23 06:23:12;;;;;;;0.90;0.70;;;;;;;11.53;100.00;99472.44;5088096;28;20123;-69
2022/12/23 06:25:38;;;;;;;1.00;0.80;;;;;;;11.54;100.00;99466.09;5087985;28;20048;-68
2022/12/23 06:28:04;;;;;;;2.05;0.85;;;;;;;11.54;100.00;99460.75;5087958;28;20036;-68
2022/12/23 06:30:29;;;;;;;4.90;0.93;;;;;;;11.55;100.00;99462.41;5086688;28;20044;-68
2022/12/23 06:32:55;;;;;;;0.50;0.50;;;;;;;11.55;100.00;99462.41;5080182;28;20051;-68
2022/12/23 06:35:20;;;;;;;1.27;0.50;;;;;;;11.52;100.00;99469.97;5074627;28;20131;-68
2022/12/23 06:37:46;;;;;;;1.95;0.30;;;;;;;11.50;100.00;99470.16;5074222;28;20056;-68
2022/12/23 06:40:11;;;;;;;0.30;0.30;;;;;;;11.54;100.00;99479.44;5074004;28;20102;-68
2022/12/23 06:42:37;;;;;;;2.25;0.70;;;;;;;11.55;100.00;99470.41;5074140;28;20048;-69
2022/12/23 06:45:02;;;;;;;1.00;0.60;;;;;;;11.58;100.00;99470.00;5074263;28;20383;-68
2022/12/23 06:47:28;;;;;;;0.30;0.30;;;;;;;11.60;100.00;99480.47;5074081;28;20123;-68
2022/12/23 06:49:53;;;;;;;2.30;0.70;;;;;;;11.63;100.00;99478.22;5073951;28;20082;-68
2022/12/23 06:52:21;;;;;;;2.03;0.85;;;;;;;11.63;100.00;99483.56;5073822;28;20044;-68
2022/12/23 06:54:46;;;;;;;0.73;0.50;;;;;;;11.64;100.00;99492.41;5074268;28;20036;-68
2022/12/23 06:57:12;;;;;;;1.30;0.70;;;;;;;11.71;100.00;99497.75;5074008;28;20105;-68
2022/12/23 06:59:37;;;;;;;0.75;0.63;;;;;;;11.69;100.00;99495.28;5074264;28;20047;-68
2022/12/23 07:02:03;;;;;;;1.08;0.60;;;;;;;11.67;100.00;99492.84;5073788;28;20036;-68
2022/12/23 07:04:28;;;;;;;0.85;0.40;;;;;;;11.68;100.00;99497.16;5072666;28;20548;-68
2022/12/23 07:06:53;;;;;;;0.77;0.50;;;;;;;11.67;100.00;99500.84;5073880;28;20028;-68
2022/12/23 07:09:19;;;;;;;1.50;0.55;;;;;;;11.68;100.00;99499.81;5073901;28;20492;-68
2022/12/23 07:11:44;;;;;;;0.40;0.40;;;;;;;11.70;100.00;99499.59;5072166;28;20045;-70
2022/12/23 07:14:10;;;;;;;0.50;0.50;;;;;;;11.66;100.00;99499.16;5073535;28;20067;-68
2022/12/23 07:16:36;;;;;;;0.47;0.47;;;;;;;11.64;100.00;99500.41;5073562;28;20063;-67
2022/12/23 07:19:01;;;;;;;0.60;0.55;;;;;;;11.63;100.00;99504.91;5073736;28;20397;-68
2022/12/23 07:21:26;;;;;;;0.95;0.60;;;;;;;11.59;100.00;99508.97;5073211;28;20040;-69
2022/12/23 07:23:52;;;;;;;1.08;0.75;;;;;;;11.61;100.00;99509.63;5073605;28;20041;-68
2022/12/23 07:26:17;;;;;;;1.00;0.70;;;;;;;11.58;100.00;99511.84;5073587;28;20037;-68
2022/12/23 07:28:46;;;;;;;1.38;0.60;;;;;;;11.58;100.00;99515.34;5073436;28;20432;-70
2022/12/23 07:31:12;;;;;;;0.45;0.45;;;;;;;11.55;100.00;99515.75;5073143;28;20123;-69
2022/12/23 07:33:37;;;;;;;0.45;0.45;;;;;;;11.53;100.00;99522.28;5073295;28;20054;-68
2022/12/23 07:36:03;;;;;;;0.60;0.60;;;;;;;11.49;100.00;99521.06;5073147;28;20045;-68
2022/12/23 07:38:28;;;;;;;0.43;0.43;;;;;;;11.45;100.00;99525.13;5073220;28;20028;-68
2022/12/23 07:40:53;;;;;;;0.93;0.32;;;;;;;11.43;100.00;99525.31;5071879;28;20446;-67
2022/12/23 07:43:19;;;;;;;0.90;0.60;;;;;;;11.43;100.00;99519.97;5054965;28;20037;-72
2022/12/23 07:45:44;;;;;;;1.00;0.43;;;;;;;11.42;100.00;99526.34;5072141;28;20117;-67
2022/12/23 07:48:09;;;;;;;0.63;0.63;;;;;;;11.40;100.00;99523.84;5073141;28;20124;-68
2022/12/23 07:50:35;;;;;;;2.20;0.77;;;;;;;11.43;100.00;99529.84;5072795;28;20049;-71
2022/12/23 07:53:00;;;;;;;0.57;0.57;;;;;;;11.43;100.00;99529.84;5072958;28;20404;-67
2022/12/23 07:55:25;;;;;;;0.85;0.80;;;;;;;11.43;100.00;99532.50;5072810;28;20118;-68
2022/12/23 07:57:52;;;;;;;3.25;1.00;;;;;;;11.46;100.00;99538.25;5072982;28;20048;-71
2022/12/23 08:00:19;;;;;;;1.35;0.80;;;;;;;11.45;100.00;99533.94;5072789;28;20040;-69
2022/12/23 08:02:45;;;;;;;2.30;0.57;;;;;;;11.47;100.00;99539.88;5072925;28;20037;-69
2022/12/23 08:05:11;;;;;;;1.60;1.15;;;;;;;11.52;100.00;99541.97;5072663;28;20640;-68
2022/12/23 08:07:37;;;;;;;1.40;0.82;;;;;;;11.52;100.00;99540.13;5072648;28;20044;-69
2022/12/23 08:10:04;;;;;;;1.73;0.75;;;;;;;11.52;100.00;99528.63;5072468;28;20086;-68
2022/12/23 08:12:29;;;;;;;1.52;0.75;;;;;;;11.51;100.00;99535.00;5072320;28;20036;-68
2022/12/23 08:14:54;;;;;;;2.35;0.80;;;;;;;11.54;100.00;99546.13;5072571;28;20043;-70
2022/12/23 08:17:24;;;;;;;1.55;1.08;;;;;;;11.55;100.00;99537.09;5072227;28;20041;-70
2022/12/23 08:19:49;;;;;;;1.55;0.95;;;;;;;11.53;100.00;99539.09;5072274;28;20025;-69
2022/12/23 08:22:15;;;;;;;1.27;0.77;;;;;;;11.57;100.00;99543.03;5072116;28;20492;-69
2022/12/23 08:24:41;;;;;;;1.15;0.90;;;;;;;11.60;100.00;99537.28;5072251;28;20032;-70
2022/12/23 08:27:06;;;;;;;1.55;1.10;;;;;;;11.57;100.00;99524.38;5072175;28;20527;-69
2022/12/23 08:29:31;;;;;;;4.38;2.10;;;;;;;11.58;100.00;99517.19;5072186;28;20494;-69
2022/12/23 08:31:57;;;;;;;7.53;4.97;;;;;;;11.55;100.00;99515.75;5071798;28;20048;-69
2022/12/23 08:34:22;;;;;;;1.45;0.77;;;;;;;11.58;100.00;99519.84;5072129;28;20420;-70
2022/12/23 08:36:48;;;;;;;1.58;1.10;;;;;;;11.56;100.00;99525.41;5071803;28;20043;-70
2022/12/23 08:39:14;;;;;;;0.70;0.50;;;;;;;11.55;100.00;99528.25;5072113;28;20126;-70
2022/12/23 08:41:44;;;;;;;0.55;0.55;;;;;;;11.52;100.00;99521.47;5071654;28;20041;-69
2022/12/23 08:44:09;;;;;;;0.65;0.50;;;;;;;11.53;100.00;99535.63;5071912;28;20507;-69
2022/12/23 08:46:36;;;;;;;0.40;0.40;;;;;;;11.52;100.00;99525.97;5071706;28;20127;-69
2022/12/23 08:49:02;;;;;;;0.63;0.50;;;;;;;11.49;100.00;99534.38;5071825;28;20036;-69
2022/12/23 08:51:28;;;;;;;0.50;0.50;;;;;;;11.47;100.00;99531.88;5071519;28;20036;-69
2022/12/23 08:53:56;;;;;;;0.55;0.50;;;;;;;11.45;100.00;99530.44;5071745;28;20036;-69
2022/12/23 08:56:22;;;;;;;;;;;;;;;11.44;100.00;99534.13;5071823;28;20033;-64
2022/12/23 08:58:51;;;;;;;1.15;0.73;;;;;;;11.39;100.00;99532.06;5071801;28;19920;-62
2022/12/23 09:01:19;;;;;;;1.00;0.95;;;;;;;11.40;100.00;99525.69;5071458;28;20046;-62
2022/12/23 09:03:44;;;;;;;2.65;0.70;;;;;;;11.39;100.00;99529.38;5071679;28;20098;-62
2022/12/23 09:06:25;;;;;;;0.93;0.60;;;;;;;11.40;100.00;99531.03;5071627;28;20028;-68
2022/12/23 09:08:51;;;;;;;1.08;0.88;;;;;;;11.40;100.00;99523.03;5071613;28;20029;-69
2022/12/23 09:11:19;;;;;;;1.02;0.68;;;;;;;11.41;100.00;99516.69;5071330;28;20106;-69
2022/12/23 09:13:45;;;;;;;0.50;0.50;;;;;;;11.44;100.00;99494.13;5071225;28;20044;-68
2022/12/23 09:16:11;;;;;;;0.47;0.40;;;;;;;11.42;100.00;99489.00;5072017;28;20070;-68
2022/12/23 09:18:36;;;;;;;0.52;0.52;;;;;;;11.44;100.00;99489.63;5070604;28;20214;-68
2022/12/23 09:21:04;;;;;;;2.83;0.90;;;;;;;11.45;100.00;99488.59;5070818;28;20362;-68
2022/12/23 09:23:31;;;;;;;0.88;0.43;;;;;;;11.50;100.00;99488.03;5070373;28;20058;-69
2022/12/23 09:25:56;;;;;;;1.08;0.80;;;;;;;11.48;100.00;99482.06;5071576;28;20036;-69
2022/12/23 09:28:22;;;;;;;2.05;0.90;;;;;;;11.52;100.00;99483.31;5071693;28;20503;-69
2022/12/23 09:30:48;;;;;;;0.93;0.70;;;;;;;11.56;100.00;99480.06;5071062;28;20121;-67
2022/12/23 09:33:14;;;;;;;4.70;2.88;;;;;;;11.58;100.00;99488.66;5071351;28;20071;-67
2022/12/23 09:35:39;;;;;;;4.20;2.38;;;;;;;11.61;100.00;99472.28;5071166;28;20036;-68
2022/12/23 09:38:04;;;;;;;4.50;2.65;;;;;;;11.69;100.00;99471.28;5071305;28;20044;-67
2022/12/23 09:40:33;;;;;;;3.42;1.90;;;;;;;11.67;100.00;99463.50;5070909;28;20094;-68
2022/12/23 09:43:32;;;;;;;2.45;1.13;;;;;;;11.68;100.00;99469.66;5071308;28;20499;-70
2022/12/23 09:46:18;;;;;;;0.70;0.68;;;;;;;11.71;100.00;99471.06;5071357;28;20036;-69
2022/12/23 09:48:57;;;;;;;1.67;1.00;;;;;;;11.71;100.00;99481.75;5071478;28;20037;-69
2022/12/23 09:51:22;;;;;;;0.80;0.60;;;;;;;11.71;100.00;99476.41;5071313;28;20477;-70
2022/12/23 09:54:32;;;;;;;1.48;1.00;;;;;;;11.72;100.00;99483.38;5071351;28;20039;-70
2022/12/23 09:57:03;;;;;;;1.33;0.90;;;;;;;11.72;100.00;99478.06;5028885;28;20622;-71
2022/12/23 09:59:55;;;;;;;1.00;0.60;;;;;;;11.72;100.00;99478.88;5064184;28;20048;-71
2022/12/23 10:02:20;;;;;;;1.80;0.82;;;;;;;11.74;100.00;99476.03;5063521;28;20128;-69
2022/12/23 10:05:07;;;;;;;1.17;0.52;;;;;;;11.72;100.00;99472.72;5071227;28;20486;-71
2022/12/23 10:07:39;;;;;;;0.52;0.52;;;;;;;11.75;100.00;99477.69;5071828;28;20040;-68
2022/12/23 10:10:16;;;;;;;1.10;0.50;;;;;;;11.75;100.00;99462.50;5074879;28;20354;-67
2022/12/23 10:12:47;;;;;;;0.50;0.50;;;;;;;11.80;100.00;99461.88;5074719;28;20036;-68
2022/12/23 10:15:21;;;;;;;0.82;0.52;;;;;;;11.80;100.00;99453.84;5074652;28;20439;-67
2022/12/23 10:17:52;;;;;;;7.53;4.32;;;;;;;11.86;100.00;99453.09;5074658;28;20494;-70
2022/12/23 10:20:28;;;;;;;5.45;2.78;;;;;;;11.90;100.00;99455.16;5074397;28;20037;-69
2022/12/23 10:22:55;;;;;;;0.68;0.50;;;;;;;11.91;100.00;99443.47;5074711;28;20089;-69
2022/12/23 10:25:33;;;;;;;1.15;0.70;;;;;;;11.92;100.00;99452.28;5074808;28;20388;-66
2022/12/23 10:27:58;;;;;;;;;;;;;;;11.93;100.00;99453.94;5075025;28;20036;-67
2022/12/23 10:30:24;;;;;;;3.80;2.00;;;;;;;11.93;100.00;99445.94;5074185;28;19927;-70
2022/12/23 10:33:07;;;;;;;0.80;0.50;;;;;;;11.94;100.00;99447.59;5073082;28;20044;-70
2022/12/23 10:35:36;;;;;;;24.70;12.60;;;;;;;11.99;100.00;99438.97;5074082;28;20040;-69
2022/12/23 10:38:23;;;;;;;1.92;1.13;;;;;;;11.99;100.00;99441.63;5073310;28;20435;-70
2022/12/23 10:41:13;;;;;;;1.60;0.52;;;;;;;11.99;100.00;99430.97;5074070;28;20056;-70
2022/12/23 10:43:56;;;;;;;1.08;0.88;;;;;;;12.00;100.00;99422.78;5074100;28;20036;-67
2022/12/23 10:46:50;;;;;;;1.00;0.68;;;;;;;12.01;100.00;99429.75;5074089;28;20032;-67
2022/12/23 10:49:23;;;;;;;1.27;0.80;;;;;;;12.03;100.00;99426.88;5074127;28;20028;-69
2022/12/23 10:51:54;;;;;;;2.58;1.23;;;;;;;12.06;100.00;99431.78;5073902;28;20047;-69
2022/12/23 10:54:28;;;;;;;0.90;0.70;;;;;;;12.13;100.00;99413.97;5074462;28;20346;-69
2022/12/23 10:56:53;;;;;;;3.08;0.60;;;;;;;12.19;100.00;99418.47;5074088;28;20500;-68
2022/12/23 10:59:25;;;;;;;2.42;0.90;;;;;;;12.20;100.00;99412.13;5073967;28;20036;-69
2022/12/23 11:02:13;;;;;;;0.73;0.70;;;;;;;12.28;100.00;99411.09;5073579;28;20124;-69
2022/12/23 11:04:46;;;;;;;1.63;0.82;;;;;;;12.31;100.00;99408.81;5073998;28;20036;-68
2022/12/23 11:07:27;;;;;;;1.63;0.65;;;;;;;12.34;100.00;99402.28;5073781;28;20044;-69
2022/12/23 11:10:04;;;;;;;0.82;0.65;;;;;;;12.39;100.00;99402.50;5073793;28;20036;-69
2022/12/23 11:12:46;;;;;;;0.80;0.80;;;;;;;12.43;100.00;99393.84;5073673;28;20044;-69
2022/12/23 11:15:34;;;;;;;1.77;1.48;;;;;;;12.40;100.00;99394.25;5073612;28;20047;-70
2022/12/23 11:18:01;;;;;;;3.38;1.70;;;;;;;12.40;100.00;99382.75;5073629;28;20044;-69
2022/12/23 11:20:26;;;;;;;0.70;0.50;;;;;;;12.39;100.00;99379.28;5073301;28;20039;-69
2022/12/23 11:22:55;;;;;;;0.52;0.50;;;;;;;12.42;100.00;99378.03;5073725;28;20044;-69
2022/12/23 11:25:41;;;;;;;1.25;0.90;;;;;;;12.40;100.00;99375.56;5073464;28;20527;-69
2022/12/23 11:28:10;;;;;;;2.95;0.80;;;;;;;12.37;100.00;99362.59;5073530;28;20447;-69
2022/12/23 11:30:46;;;;;;;1.15;0.75;;;;;;;12.34;100.00;99349.69;5072969;28;20115;-68
2022/12/23 11:33:25;;;;;;;1.20;1.10;;;;;;;12.31;100.00;99349.25;5072796;28;20033;-69
2022/12/23 11:36:02;;;;;;;1.23;0.80;;;;;;;12.30;100.00;99339.63;5073312;28;20040;-69
2022/12/23 11:38:27;;;;;;;1.05;0.65;;;;;;;12.29;100.00;99336.13;5073288;28;20040;-69
2022/12/23 11:40:53;;;;;;;1.10;0.73;;;;;;;12.29;100.00;99322.78;5072923;28;20024;-70
2022/12/23 11:43:19;;;;;;;0.60;0.50;;;;;;;12.28;100.00;99313.13;5073304;28;20382;-69
2022/12/23 11:45:45;;;;;;;1.10;0.60;;;;;;;12.31;100.00;99314.53;5073031;28;20120;-69
2022/12/23 11:48:30;;;;;;;2.22;0.70;;;;;;;12.29;100.00;99305.94;5073091;28;20128;-69
2022/12/23 11:51:00;;;;;;;0.73;0.60;;;;;;;12.33;100.00;99307.16;5072396;28;20139;-69
2022/12/23 11:53:26;;;;;;;0.38;0.30;;;;;;;12.33;100.00;99301.84;5072919;28;20048;-69
2022/12/23 11:56:12;;;;;;;1.10;0.50;;;;;;;12.34;100.00;99304.28;5072910;28;20112;-69
2022/12/23 11:58:52;;;;;;;0.38;0.38;;;;;;;12.35;100.00;99283.75;5071681;28;20055;-69
2022/12/23 12:01:21;;;;;;;2.65;0.82;;;;;;;12.35;100.00;99273.88;5072523;28;20037;-69
2022/12/23 12:03:53;;;;;;;1.95;1.17;;;;;;;12.40;100.00;99267.91;5072638;28;20045;-69
2022/12/23 12:06:20;;;;;;;1.00;0.60;;;;;;;12.39;100.00;99258.28;5072726;28;20032;-69
2022/12/23 12:08:52;;;;;;;0.50;0.50;;;;;;;12.43;100.00;99273.66;5072628;28;20106;-69
2022/12/23 12:11:24;;;;;;;0.60;0.60;;;;;;;12.43;100.00;99260.28;5070815;28;20363;-69
2022/12/23 12:14:01;;;;;;;1.05;0.70;;;;;;;12.46;100.00;99262.56;5072539;28;20052;-69
2022/12/23 12:16:29;;;;;;;0.68;0.60;;;;;;;12.47;100.00;99260.72;5072438;28;20038;-69
2022/12/23 12:19:00;;;;;;;1.75;0.70;;;;;;;12.48;100.00;99254.34;5072400;28;20034;-70
2022/12/23 12:21:31;;;;;;;0.63;0.38;;;;;;;12.50;100.00;99252.28;5072061;28;20036;-69
2022/12/23 12:24:37;;;;;;;1.10;0.90;;;;;;;12.50;100.00;99246.94;5072523;28;20116;-69
2022/12/23 12:27:06;;;;;;;0.30;0.30;;;;;;;12.52;100.00;99239.53;5066242;28;20049;-68
2022/12/23 12:29:39;;;;;;;1.73;0.70;;;;;;;12.56;100.00;99246.09;5071082;28;20036;-69
2022/12/23 12:32:16;;;;;;;1.42;0.70;;;;;;;12.57;100.00;99239.72;5071562;28;20048;-68
2022/12/23 12:34:57;;;;;;;1.20;0.57;;;;;;;12.62;100.00;99242.56;5072249;28;20040;-68
2022/12/23 12:37:34;;;;;;;0.73;0.60;;;;;;;12.62;100.00;99239.91;5072186;28;20093;-68
2022/12/23 12:40:02;;;;;;;0.83;0.73;;;;;;;12.64;100.00;99226.31;5071004;28;20035;-68
2022/12/23 12:42:52;;;;;;;2.40;0.65;;;;;;;12.63;100.00;99222.03;5071496;28;20032;-69
2022/12/23 12:45:22;;;;;;;0.68;0.68;;;;;;;12.60;100.00;99199.22;5072105;28;20450;-70
2022/12/23 12:48:26;;;;;;;1.70;0.90;;;;;;;12.61;100.00;99206.22;5072636;28;20037;-68
2022/12/23 12:51:17;;;;;;;0.77;0.60;;;;;;;12.64;100.00;99195.09;5071071;28;20490;-70
2022/12/23 12:54:16;;;;;;;1.17;0.75;;;;;;;12.64;100.00;99191.59;5071316;28;20106;-68
2022/12/23 12:56:51;;;;;;;1.00;0.68;;;;;;;12.66;100.00;99187.69;5071658;28;20032;-70
2022/12/23 12:59:23;;;;;;;1.17;0.50;;;;;;;12.62;100.00;99183.00;5071869;28;20389;-68
2022/12/23 13:01:48;;;;;;;0.60;0.60;;;;;;;12.65;100.00;99188.75;5071003;28;20043;-67
2022/12/23 13:04:39;;;;;;;1.15;0.80;;;;;;;12.64;100.00;99200.44;5071688;28;20044;-69
2022/12/23 13:07:29;;;;;;;0.43;0.43;;;;;;;12.65;100.00;99188.75;5071356;28;20040;-67
2022/12/23 13:10:10;;;;;;;0.98;0.63;;;;;;;12.67;100.00;99185.84;5071434;28;20085;-67
2022/12/23 13:12:52;;;;;;;0.80;0.50;;;;;;;12.67;100.00;99189.34;5071291;28;20040;-70
2022/12/23 13:15:25;;;;;;;1.58;0.77;;;;;;;12.67;100.00;99192.00;5071543;28;20036;-71
2022/12/23 13:18:18;;;;;;;1.60;0.75;;;;;;;12.65;100.00;99185.22;5071699;28;20546;-68
2022/12/23 13:20:59;;;;;;;0.47;0.40;;;;;;;12.67;100.00;99173.31;5070699;28;20036;-68
2022/12/23 13:23:33;;;;;;;0.63;0.43;;;;;;;12.68;100.00;99171.44;5069964;28;20111;-69
2022/12/23 13:26:08;;;;;;;0.40;0.40;;;;;;;12.70;100.00;99162.19;5071428;28;20086;-68
2022/12/23 13:28:54;;;;;;;0.73;0.57;;;;;;;12.73;100.00;99159.09;5071504;28;20499;-67
2022/12/23 13:31:36;;;;;;;1.85;0.50;;;;;;;12.82;100.00;99150.81;5070628;28;20036;-67
2022/12/23 13:34:20;;;;;;;0.30;0.30;;;;;;;12.85;100.00;99148.56;5071489;28;20042;-67
2022/12/23 13:37:42;;;;;;;0.82;0.43;;;;;;;12.90;100.00;99145.22;5071114;28;20485;-69
2022/12/23 13:40:52;;;;;;;0.75;0.55;;;;;;;12.93;100.00;99144.81;5028622;28;20064;-67
2022/12/23 13:43:22;;;;;;;0.40;0.40;;;;;;;12.91;100.00;99149.53;5011185;28;20387;-68
2022/12/23 13:45:51;;;;;;;1.00;0.70;;;;;;;12.88;100.00;99148.13;5071764;28;20121;-67
2022/12/23 13:48:29;;;;;;;0.90;0.45;;;;;;;12.83;100.00;99153.28;5075691;28;20051;-68
2022/12/23 13:51:13;;;;;;;0.45;0.30;;;;;;;12.81;100.00;99158.03;5075024;28;20032;-70
2022/12/23 13:53:48;;;;;;;0.60;0.50;;;;;;;12.73;100.00;99159.09;5075324;28;20032;-67
2022/12/23 13:56:26;;;;;;;1.17;0.50;;;;;;;12.75;100.00;99154.34;5075231;28;20401;-67
2022/12/23 13:58:51;;;;;;;;;;;;;;;12.70;100.00;99161.38;5075729;28;20044;-68
2022/12/23 14:01:17;;;;;;;0.20;0.20;;;;;;;12.70;100.00;99158.69;5074861;28;20285;-71
2022/12/23 14:03:43;;;;;;;0.50;0.43;;;;;;;12.68;100.00;99158.91;5075150;28;20047;-67
2022/12/23 14:06:39;;;;;;;2.53;0.77;;;;;;;12.66;100.00;99152.16;5074836;28;20036;-67
2022/12/23 14:09:04;;;;;;;1.58;0.55;;;;;;;12.69;100.00;99154.38;5074983;28;20040;-68
2022/12/23 14:11:31;;;;;;;0.30;0.30;;;;;;;12.69;100.00;99151.72;5074685;28;20033;-67
2022/12/23 14:14:00;;;;;;;0.50;0.28;;;;;;;12.61;100.00;99138.59;5075039;28;20040;-70
2022/12/23 14:16:31;;;;;;;1.00;0.60;;;;;;;12.67;100.00;99151.94;5074881;28;20043;-68
2022/12/23 14:19:20;;;;;;;0.90;0.45;;;;;;;12.69;100.00;99144.50;5074787;28;20047;-67
2022/12/23 14:21:55;;;;;;;0.68;0.60;;;;;;;12.71;100.00;99152.31;5074490;28;20021;-67
2022/12/23 14:25:04;;;;;;;0.47;0.40;;;;;;;12.75;100.00;99138.31;5073575;28;20102;-67
2022/12/23 14:27:40;;;;;;;0.80;0.57;;;;;;;12.76;100.00;99139.94;5051098;28;20048;-68
2022/12/23 14:30:11;;;;;;;0.93;0.68;;;;;;;12.76;100.00;99137.28;5074580;28;20165;-69
2022/12/23 14:32:52;;;;;;;0.73;0.70;;;;;;;12.77;100.00;99136.25;5074555;28;20037;-67
2022/12/23 14:35:19;;;;;;;1.15;0.57;;;;;;;12.83;100.00;99139.09;5073326;28;20178;-68
2022/12/23 14:38:04;;;;;;;0.70;0.40;;;;;;;12.85;100.00;99139.72;5074734;28;20097;-68
2022/12/23 14:40:35;;;;;;;0.55;0.55;;;;;;;12.84;100.00;99143.41;5074724;28;20533;-70
2022/12/23 14:43:25;;;;;;;0.60;0.50;;;;;;;12.87;100.00;99148.34;5074602;28;20441;-67
2022/12/23 14:45:53;;;;;;;1.00;0.50;;;;;;;12.87;100.00;99148.34;5074558;28;20037;-68
2022/12/23 14:48:40;;;;;;;0.73;0.60;;;;;;;12.92;100.00;99145.84;5074381;28;20444;-68
2022/12/23 14:51:09;;;;;;;0.50;0.35;;;;;;;12.93;100.00;99150.16;5073772;28;20111;-68
2022/12/23 14:53:36;;;;;;;0.73;0.60;;;;;;;12.99;100.00;99143.94;5073728;28;20032;-68
2022/12/23 14:56:22;;;;;;;0.47;0.40;;;;;;;12.98;100.00;99145.00;5074068;28;20078;-70
2022/12/23 14:58:50;;;;;;;0.47;0.47;;;;;;;13.01;100.00;99145.34;5074163;28;20066;-67
2022/12/23 15:01:39;;;;;;;2.17;0.68;;;;;;;13.03;100.00;99155.81;5068576;28;20036;-69
2022/12/23 15:04:13;;;;;;;2.17;0.55;;;;;;;13.01;100.00;99149.88;5054044;28;20052;-70
2022/12/23 15:06:42;;;;;;;0.20;0.20;;;;;;;13.11;100.00;99160.13;5053990;28;20037;-69
2022/12/23 15:09:20;;;;;;;2.22;0.47;;;;;;;13.13;100.00;99156.19;5053775;28;20040;-68
2022/12/23 15:11:45;;;;;;;3.00;0.90;;;;;;;13.11;100.00;99157.44;5053487;28;20075;-68
2022/12/23 15:14:20;;;;;;;1.02;0.60;;;;;;;13.10;100.00;99161.94;5053837;28;20072;-68
2022/12/23 15:16:45;;;;;;;0.40;0.40;;;;;;;13.13;100.00;99158.03;5053780;28;20104;-68
2022/12/23 15:19:19;;;;;;;1.30;0.75;;;;;;;13.15;100.00;99164.00;5053698;28;20119;-68
2022/12/23 15:21:45;;;;;;;0.68;0.68;;;;;;;13.19;100.00;99166.03;5053306;28;20087;-69
2022/12/23 15:24:20;;;;;;;1.90;1.13;;;;;;;13.22;100.00;99160.25;5060410;28;20052;-69
2022/12/23 15:26:51;;;;;;;0.75;0.75;;;;;;;13.34;100.00;99151.53;5079969;28;20451;-69
2022/12/23 15:29:19;;;;;;;0.68;0.50;;;;;;;13.42;100.00;99153.94;5074018;28;20033;-69
2022/12/23 15:31:49;;;;;;;0.80;0.55;;;;;;;13.44;100.00;99144.69;5073223;28;20060;-71
2022/12/23 15:34:23;;;;;;;0.70;0.50;;;;;;;13.40;100.00;99146.16;5073572;28;20040;-69
2022/12/23 15:36:53;;;;;;;0.50;0.50;;;;;;;13.38;100.00;99142.06;5073451;28;20067;-69
2022/12/23 15:39:40;;;;;;;0.52;0.47;;;;;;;13.45;100.00;99156.19;5068826;28;20032;-68
2022/12/23 15:42:30;;;;;;;0.60;0.50;;;;;;;13.46;100.00;99155.16;5060671;28;20033;-69
2022/12/23 15:44:57;;;;;;;0.63;0.60;;;;;;;13.46;100.00;99171.22;5052902;28;20048;-69
2022/12/23 15:47:41;;;;;;;0.80;0.57;;;;;;;13.43;100.00;99174.31;5053142;28;20045;-69
2022/12/23 15:50:15;;;;;;;1.83;0.90;;;;;;;13.41;100.00;99169.19;5052613;28;20045;-69
2022/12/23 15:52:43;;;;;;;0.60;0.60;;;;;;;13.40;100.00;99172.06;5060705;28;20037;-69
2022/12/23 15:55:27;;;;;;;0.60;0.60;;;;;;;13.36;100.00;99176.22;5072547;28;20072;-68
2022/12/23 15:57:53;;;;;;;0.60;0.52;;;;;;;13.36;100.00;99165.50;5072848;28;20032;-69
2022/12/23 16:00:40;;;;;;;0.57;0.50;;;;;;;13.35;100.00;99169.22;5071989;28;20093;-69
2022/12/23 16:03:22;;;;;;;1.08;0.40;;;;;;;13.29;100.00;99182.41;5061503;28;20059;-69
2022/12/23 16:05:48;;;;;;;0.45;0.35;;;;;;;13.32;100.00;99191.06;5057247;28;20029;-69
2022/12/23 16:08:16;;;;;;;0.40;0.38;;;;;;;13.29;100.00;99187.78;5058049;28;20402;-69
2022/12/23 16:11:03;;;;;;;0.22;0.22;;;;;;;13.27;100.00;99192.53;5054456;28;20049;-69
2022/12/23 16:13:28;;;;;;;1.02;0.60;;;;;;;13.21;100.00;99182.69;5052773;28;20517;-69
2022/12/23 16:16:32;;;;;;;0.40;0.40;;;;;;;13.27;100.00;99202.41;5052653;28;20037;-69
2022/12/23 16:18:58;;;;;;;0.82;0.70;;;;;;;13.19;100.00;99203.47;5052676;28;20410;-69
2022/12/23 16:21:29;;;;;;;1.20;0.80;;;;;;;13.19;100.00;99182.06;5052187;28;20037;-69
2022/12/23 16:23:54;;;;;;;0.50;0.43;;;;;;;13.19;100.00;99192.75;5056694;28;20032;-68
2022/12/23 16:26:20;;;;;;;1.52;0.70;;;;;;;13.18;100.00;99196.47;5072734;28;20074;-68
2022/12/23 16:28:59;;;;;;;0.55;0.35;;;;;;;13.18;100.00;99190.31;5073051;28;20083;-69
2022/12/23 16:31:25;;;;;;;0.85;0.55;;;;;;;13.19;100.00;99190.09;5072460;28;20443;-68
2022/12/23 16:33:55;;;;;;;1.27;0.60;;;;;;;13.22;100.00;99189.69;5072162;28;20036;-68
2022/12/23 16:36:23;;;;;;;0.77;0.43;;;;;;;13.24;100.00;99190.31;5072099;28;20036;-68
2022/12/23 16:38:55;;;;;;;0.95;0.77;;;;;;;13.20;100.00;99191.75;5072231;28;20055;-68
2022/12/23 16:41:21;;;;;;;0.50;0.45;;;;;;;13.33;100.00;99184.69;5071853;28;20054;-68
2022/12/23 16:43:47;;;;;;;0.52;0.50;;;;;;;13.35;100.00;99198.66;5072098;28;20565;-68
2022/12/23 16:46:16;;;;;;;0.80;0.60;;;;;;;13.24;100.00;99200.19;5072049;28;20397;-68
2022/12/23 16:48:48;;;;;;;0.52;0.50;;;;;;;13.34;100.00;99218.41;5072114;28;20118;-68
2022/12/23 16:51:17;;;;;;;1.40;0.50;;;;;;;13.28;100.00;99220.09;5071641;28;20035;-68
2022/12/23 16:53:42;;;;;;;0.43;0.30;;;;;;;13.29;100.00;99219.88;5071925;28;20036;-68
2022/12/23 16:56:12;;;;;;;0.98;0.70;;;;;;;13.21;100.00;99227.34;5071937;28;20043;-68
2022/12/23 16:58:38;;;;;;;0.43;0.40;;;;;;;13.12;100.00;99229.41;5071989;28;20556;-68
2022/12/23 17:01:03;;;;;;;0.40;0.30;;;;;;;13.09;100.00;99229.81;5071583;28;20036;-68
2022/12/23 17:03:29;;;;;;;0.65;0.60;;;;;;;13.03;100.00;99220.00;5071886;28;20045;-68
2022/12/23 17:05:54;;;;;;;1.27;0.90;;;;;;;13.03;100.00;99220.00;5071663;28;20051;-68
2022/12/23 17:08:20;;;;;;;0.50;0.40;;;;;;;12.97;100.00;99220.84;5071764;28;20408;-68
2022/12/23 17:10:46;;;;;;;0.40;0.40;;;;;;;12.85;100.00;99233.25;5071476;28;20490;-68